createdAt,value
2018-05-01T00:00:07.575Z,15.88
2018-05-01T00:01:07.014Z,15.97
2018-05-01T00:02:07.293Z,16.02
2018-05-01T00:03:07.573Z,16.09
2018-05-01T00:04:07.348Z,15.98
2018-05-01T00:05:07.615Z,16.1
2018-05-01T00:06:07.125Z,16.1
2018-05-01T00:07:07.656Z,16.08
2018-05-01T00:08:07.165Z,16.1
2018-05-01T00:09:07.698Z,16.12
2018-05-01T00:10:09.000Z,16.05
2018-05-01T00:11:07.487Z,16.04
2018-05-01T00:12:07.510Z,16.01
2018-05-01T00:13:07.535Z,16.04
2018-05-01T00:14:07.808Z,16.08
2018-05-01T00:15:07.829Z,15.9
2018-05-01T00:16:07.851Z,15.91
2018-05-01T00:17:07.873Z,15.9
2018-05-01T00:18:07.897Z,15.82
2018-05-01T00:19:07.921Z,15.79
2018-05-01T00:20:07.943Z,15.82
2018-05-01T00:21:07.712Z,15.62
2018-05-01T00:22:07.727Z,15.51
2018-05-01T00:23:08.003Z,15.43
2018-05-01T00:24:07.770Z,15.37
2018-05-01T00:25:08.172Z,15.24
2018-05-01T00:26:08.064Z,15.04
2018-05-01T00:27:07.580Z,15.03
2018-05-01T00:28:07.856Z,15.03
2018-05-01T00:29:07.882Z,14.88
2018-05-01T00:30:07.900Z,14.84
2018-05-01T00:31:07.924Z,14.82
2018-05-01T00:32:08.199Z,14.91
2018-05-01T00:33:07.963Z,14.97
2018-05-01T00:34:07.731Z,14.88
2018-05-01T00:35:08.022Z,14.94
2018-05-01T00:36:08.035Z,15.03
2018-05-01T00:37:08.055Z,14.97
2018-05-01T00:38:08.328Z,15.02
2018-05-01T00:39:08.089Z,14.92
2018-05-01T00:40:08.170Z,14.85
2018-05-01T00:41:08.387Z,14.77
2018-05-01T00:42:08.410Z,14.78
2018-05-01T00:43:08.175Z,14.63
2018-05-01T00:44:08.197Z,14.69
2018-05-01T00:45:07.965Z,14.81
2018-05-01T00:46:07.987Z,14.79
2018-05-01T00:47:08.002Z,14.7
2018-05-01T00:48:08.532Z,14.6
2018-05-01T00:49:08.080Z,14.55
2018-05-01T00:50:08.323Z,14.59
2018-05-01T00:51:08.345Z,14.65
2018-05-01T00:52:08.110Z,14.65
2018-05-01T00:53:08.638Z,14.72
2018-05-01T00:54:08.166Z,14.77
2018-05-01T00:55:08.678Z,14.69
2018-05-01T00:56:08.490Z,14.81
2018-05-01T00:57:08.211Z,14.68
2018-05-01T00:58:08.740Z,14.62
2018-05-01T00:59:08.768Z,14.72
2018-05-01T01:00:08.535Z,14.63
2018-05-01T01:01:08.553Z,14.58
2018-05-01T01:02:08.573Z,14.5
2018-05-01T01:03:08.599Z,14.6
2018-05-01T01:04:08.618Z,14.51
2018-05-01T01:05:08.639Z,14.62
2018-05-01T01:06:08.650Z,14.6
2018-05-01T01:07:08.956Z,14.51
2018-05-01T01:08:08.703Z,14.69
2018-05-01T01:09:08.749Z,14.63
2018-05-01T01:10:09.060Z,14.79
2018-05-01T01:11:09.028Z,14.7
2018-05-01T01:12:09.090Z,14.73
2018-05-01T01:13:08.804Z,14.69
2018-05-01T01:14:08.825Z,14.6
2018-05-01T01:15:08.851Z,14.63
2018-05-01T01:16:09.114Z,14.59
2018-05-01T01:17:08.893Z,14.55
2018-05-01T01:18:09.164Z,14.63
2018-05-01T01:19:09.191Z,14.55
2018-05-01T01:20:08.954Z,14.66
2018-05-01T01:21:09.226Z,14.6
2018-05-01T01:22:09.331Z,14.77
2018-05-01T01:23:09.021Z,14.69
2018-05-01T01:24:08.791Z,14.7
2018-05-01T01:25:09.311Z,14.54
2018-05-01T01:26:08.829Z,14.66
2018-05-01T01:27:09.400Z,14.54
2018-05-01T01:28:09.137Z,14.59
2018-05-01T01:29:09.396Z,14.7
2018-05-01T01:30:09.439Z,14.73
2018-05-01T01:31:09.438Z,14.91
2018-05-01T01:32:08.951Z,14.86
2018-05-01T01:33:09.496Z,14.81
2018-05-01T01:34:09.494Z,14.82
2018-05-01T01:35:09.516Z,14.77
2018-05-01T01:36:09.532Z,14.79
2018-05-01T01:37:09.300Z,14.63
2018-05-01T01:38:09.576Z,14.82
2018-05-01T01:39:09.353Z,14.79
2018-05-01T01:40:09.367Z,14.82
2018-05-01T01:41:09.651Z,14.85
2018-05-01T01:42:09.714Z,14.82
2018-05-01T01:43:09.692Z,14.7
2018-05-01T01:44:09.709Z,14.78
2018-05-01T01:45:09.746Z,14.69
2018-05-01T01:46:09.744Z,14.81
2018-05-01T01:47:09.766Z,14.91
2018-05-01T01:48:09.786Z,14.86
2018-05-01T01:49:09.806Z,14.92
2018-05-01T01:50:09.584Z,14.85
2018-05-01T01:51:09.844Z,14.94
2018-05-01T01:52:09.860Z,15.02
2018-05-01T01:53:09.635Z,14.96
2018-05-01T01:54:09.896Z,14.84
2018-05-01T01:55:09.670Z,14.85
2018-05-01T01:56:09.949Z,14.82
2018-05-01T01:57:10.010Z,14.73
2018-05-01T01:58:09.731Z,14.82
2018-05-01T01:59:10.014Z,14.78
2018-05-01T02:00:09.788Z,14.81
2018-05-01T02:01:10.056Z,14.78
2018-05-01T02:02:09.829Z,14.69
2018-05-01T02:03:10.160Z,14.85
2018-05-01T02:04:10.121Z,14.88
2018-05-01T02:05:09.891Z,14.88
2018-05-01T02:06:10.163Z,14.73
2018-05-01T02:07:10.197Z,14.78
2018-05-01T02:08:10.223Z,14.84
2018-05-01T02:09:09.964Z,14.82
2018-05-01T02:10:10.251Z,14.59
2018-05-01T02:11:09.754Z,14.59
2018-05-01T02:12:10.086Z,14.62
2018-05-01T02:13:10.312Z,14.6
2018-05-01T02:14:10.081Z,14.73
2018-05-01T02:15:10.350Z,14.63
2018-05-01T02:16:10.121Z,14.58
2018-05-01T02:17:10.405Z,14.51
2018-05-01T02:18:10.410Z,14.51
2018-05-01T02:19:10.417Z,14.51
2018-05-01T02:20:10.200Z,14.6
2018-05-01T02:21:10.474Z,14.59
2018-05-01T02:22:10.240Z,14.45
2018-05-01T02:23:10.270Z,14.65
2018-05-01T02:24:10.611Z,14.72
2018-05-01T02:25:10.557Z,14.86
2018-05-01T02:26:10.576Z,14.84
2018-05-01T02:27:10.398Z,14.69
2018-05-01T02:28:10.627Z,14.6
2018-05-01T02:29:10.657Z,14.33
2018-05-01T02:30:10.661Z,14.44
2018-05-01T02:31:10.426Z,14.36
2018-05-01T02:32:10.457Z,14.5
2018-05-01T02:33:10.469Z,14.54
2018-05-01T02:34:10.747Z,14.55
2018-05-01T02:35:10.506Z,14.6
2018-05-01T02:36:10.530Z,14.55
2018-05-01T02:37:10.804Z,14.6
2018-05-01T02:38:10.822Z,14.6
2018-05-01T02:39:10.852Z,14.6
2018-05-01T02:40:10.868Z,14.51
2018-05-01T02:41:10.836Z,14.54
2018-05-01T02:42:10.957Z,14.59
2018-05-01T02:43:10.929Z,14.63
2018-05-01T02:44:10.946Z,14.62
2018-05-01T02:45:10.978Z,14.51
2018-05-01T02:46:11.006Z,14.55
2018-05-01T02:47:10.754Z,14.55
2018-05-01T02:48:11.037Z,14.4
2018-05-01T02:49:10.796Z,14.45
2018-05-01T02:50:11.071Z,14.55
2018-05-01T02:51:11.094Z,14.51
2018-05-01T02:52:11.116Z,14.6
2018-05-01T02:53:11.138Z,14.65
2018-05-01T02:54:10.906Z,14.68
2018-05-01T02:55:10.912Z,14.79
2018-05-01T02:56:11.184Z,14.84
2018-05-01T02:57:11.261Z,14.91
2018-05-01T02:58:11.226Z,14.94
2018-05-01T02:59:11.258Z,15.06
2018-05-01T03:00:11.021Z,14.89
2018-05-01T03:01:11.306Z,14.96
2018-05-01T03:02:11.315Z,15.06
2018-05-01T03:03:11.083Z,15.06
2018-05-01T03:04:11.346Z,15.06
2018-05-01T03:05:11.381Z,15.21
2018-05-01T03:06:11.407Z,15.15
2018-05-01T03:07:11.425Z,15.11
2018-05-01T03:08:11.426Z,14.91
2018-05-01T03:09:11.209Z,15.07
2018-05-01T03:10:11.479Z,15.19
2018-05-01T03:11:11.508Z,15.17
2018-05-01T03:12:11.312Z,15.18
2018-05-01T03:13:11.538Z,15.24
2018-05-01T03:14:11.558Z,15.28
2018-05-01T03:15:11.580Z,15.29
2018-05-01T03:16:11.345Z,15.31
2018-05-01T03:17:11.624Z,15.35
2018-05-01T03:18:11.387Z,15.31
2018-05-01T03:19:11.409Z,15.37
2018-05-01T03:20:11.710Z,15.35
2018-05-01T03:21:11.717Z,15.14
2018-05-01T03:22:11.736Z,15.09
2018-05-01T03:23:11.758Z,15.14
2018-05-01T03:24:11.791Z,15.15
2018-05-01T03:25:11.793Z,15.28
2018-05-01T03:26:11.821Z,15.33
2018-05-01T03:27:11.635Z,15.33
2018-05-01T03:28:11.603Z,15.39
2018-05-01T03:29:11.623Z,15.37
2018-05-01T03:30:11.906Z,15.43
2018-05-01T03:31:11.677Z,15.4
2018-05-01T03:32:11.952Z,15.35
2018-05-01T03:33:11.966Z,15.47
2018-05-01T03:34:11.994Z,15.31
2018-05-01T03:35:12.015Z,15.4
2018-05-01T03:36:11.779Z,15.37
2018-05-01T03:37:12.053Z,15.39
2018-05-01T03:38:12.077Z,15.28
2018-05-01T03:39:12.408Z,15.35
2018-05-01T03:40:11.863Z,15.36
2018-05-01T03:41:11.878Z,15.36
2018-05-01T03:42:11.955Z,15.42
2018-05-01T03:43:12.182Z,15.33
2018-05-01T03:44:12.200Z,15.44
2018-05-01T03:45:12.225Z,15.54
2018-05-01T03:46:12.242Z,15.46
2018-05-01T03:47:12.011Z,15.35
2018-05-01T03:48:12.292Z,15.36
2018-05-01T03:49:12.067Z,15.43
2018-05-01T03:50:12.324Z,15.33
2018-05-01T03:51:12.452Z,15.37
2018-05-01T03:52:12.371Z,15.36
2018-05-01T03:53:12.389Z,15.35
2018-05-01T03:54:12.412Z,15.51
2018-05-01T03:55:12.436Z,15.49
2018-05-01T03:56:12.318Z,15.27
2018-05-01T03:57:12.223Z,15.22
2018-05-01T03:58:12.497Z,15.21
2018-05-01T03:59:12.569Z,15.18
2018-05-01T04:00:12.534Z,15.19
2018-05-01T04:01:12.552Z,15.25
2018-05-01T04:02:12.746Z,15.31
2018-05-01T04:03:12.598Z,15.35
2018-05-01T04:04:12.624Z,15.24
2018-05-01T04:05:12.389Z,15.28
2018-05-01T04:06:12.408Z,15.11
2018-05-01T04:07:12.689Z,15.03
2018-05-01T04:08:12.709Z,15.11
2018-05-01T04:09:12.486Z,15.04
2018-05-01T04:10:12.503Z,15.14
2018-05-01T04:11:12.786Z,15.15
2018-05-01T04:12:12.815Z,15.03
2018-05-01T04:13:12.819Z,15.11
2018-05-01T04:14:12.639Z,15.17
2018-05-01T04:15:12.612Z,14.92
2018-05-01T04:16:12.886Z,14.84
2018-05-01T04:17:12.897Z,14.91
2018-05-01T04:18:12.983Z,15.06
2018-05-01T04:19:12.937Z,14.94
2018-05-01T04:20:12.963Z,14.97
2018-05-01T04:21:12.982Z,15.04
2018-05-01T04:22:12.755Z,15.06
2018-05-01T04:23:13.127Z,14.97
2018-05-01T04:24:13.045Z,14.97
2018-05-01T04:25:13.077Z,15
2018-05-01T04:26:13.099Z,15.25
2018-05-01T04:27:13.118Z,15.43
2018-05-01T04:28:13.139Z,15.54
2018-05-01T04:29:12.965Z,15.46
2018-05-01T04:30:13.205Z,15.43
2018-05-01T04:31:13.213Z,15.54
2018-05-01T04:32:13.225Z,15.46
2018-05-01T04:33:13.247Z,15.54
2018-05-01T04:34:13.272Z,15.43
2018-05-01T04:35:13.291Z,15.54
2018-05-01T04:36:13.311Z,15.49
2018-05-01T04:37:13.332Z,15.55
2018-05-01T04:38:13.098Z,15.54
2018-05-01T04:39:13.374Z,15.58
2018-05-01T04:40:13.397Z,15.57
2018-05-01T04:41:13.422Z,15.57
2018-05-01T04:42:13.438Z,15.64
2018-05-01T04:43:13.461Z,15.54
2018-05-01T04:44:13.524Z,15.36
2018-05-01T04:45:13.495Z,15.15
2018-05-01T04:46:13.271Z,14.89
2018-05-01T04:47:13.288Z,14.97
2018-05-01T04:48:13.576Z,14.96
2018-05-01T04:49:13.580Z,15
2018-05-01T04:50:13.612Z,15.03
2018-05-01T04:51:13.388Z,15.18
2018-05-01T04:52:13.647Z,15.22
2018-05-01T04:53:13.670Z,15.24
2018-05-01T04:54:13.438Z,15.27
2018-05-01T04:55:13.461Z,15.28
2018-05-01T04:56:13.476Z,15.25
2018-05-01T04:57:13.510Z,15.31
2018-05-01T04:58:13.774Z,15.18
2018-05-01T04:59:13.851Z,15.31
2018-05-01T05:00:13.822Z,15.18
2018-05-01T05:01:13.845Z,15.25
2018-05-01T05:02:13.612Z,15.09
2018-05-01T05:03:13.877Z,15.07
2018-05-01T05:04:13.950Z,15.1
2018-05-01T05:05:13.919Z,15.14
2018-05-01T05:06:13.956Z,15.21
2018-05-01T05:07:13.713Z,15.17
2018-05-01T05:08:13.996Z,15.17
2018-05-01T05:09:13.781Z,15.04
2018-05-01T05:10:14.041Z,15.07
2018-05-01T05:11:14.082Z,14.99
2018-05-01T05:12:13.826Z,14.91
2018-05-01T05:13:13.846Z,14.72
2018-05-01T05:14:15.319Z,14.59
2018-05-01T05:15:14.143Z,14.68
2018-05-01T05:16:13.914Z,14.81
2018-05-01T05:17:14.185Z,14.88
2018-05-01T05:18:14.223Z,14.77
2018-05-01T05:19:14.297Z,14.72
2018-05-01T05:20:14.329Z,14.78
2018-05-01T05:21:14.266Z,14.73
2018-05-01T05:22:14.293Z,14.81
2018-05-01T05:23:14.060Z,14.7
2018-05-01T05:24:14.334Z,14.69
2018-05-01T05:25:14.355Z,14.72
2018-05-01T05:26:14.378Z,14.79
2018-05-01T05:27:14.396Z,14.78
2018-05-01T05:28:14.422Z,14.72
2018-05-01T05:29:14.443Z,14.77
2018-05-01T05:30:14.205Z,14.85
2018-05-01T05:31:14.481Z,14.84
2018-05-01T05:32:14.497Z,14.97
2018-05-01T05:33:14.516Z,14.89
2018-05-01T05:34:14.593Z,14.91
2018-05-01T05:35:14.561Z,14.86
2018-05-01T05:36:14.610Z,15.06
2018-05-01T05:37:14.351Z,15.17
2018-05-01T05:38:14.630Z,15.18
2018-05-01T05:39:14.648Z,15.22
2018-05-01T05:40:14.672Z,15.19
2018-05-01T05:41:14.693Z,15.18
2018-05-01T05:42:14.464Z,15.19
2018-05-01T05:43:14.729Z,15.31
2018-05-01T05:44:14.753Z,15.31
2018-05-01T05:45:14.534Z,15.42
2018-05-01T05:46:14.544Z,15.59
2018-05-01T05:47:14.820Z,15.52
2018-05-01T05:48:14.579Z,15.62
2018-05-01T05:49:14.897Z,15.68
2018-05-01T05:50:14.861Z,15.7
2018-05-01T05:51:14.636Z,15.84
2018-05-01T05:52:14.908Z,15.57
2018-05-01T05:53:14.929Z,15.33
2018-05-01T05:54:14.950Z,15.36
2018-05-01T05:55:14.969Z,15.39
2018-05-01T05:56:14.990Z,15.15
2018-05-01T05:57:15.019Z,15.33
2018-05-01T05:58:15.045Z,15.35
2018-05-01T05:59:15.065Z,15.21
2018-05-01T06:00:14.829Z,15.42
2018-05-01T06:01:15.415Z,15.54
2018-05-01T06:02:15.129Z,15.58
2018-05-01T06:03:14.644Z,15.62
2018-05-01T06:04:15.222Z,15.7
2018-05-01T06:05:15.190Z,15.51
2018-05-01T06:06:14.969Z,15.44
2018-05-01T06:07:14.984Z,15.51
2018-05-01T06:08:15.256Z,15.28
2018-05-01T06:09:15.290Z,15.24
2018-05-01T06:10:14.790Z,15.21
2018-05-01T06:11:15.328Z,15.22
2018-05-01T06:12:15.367Z,15.19
2018-05-01T06:13:15.363Z,15.21
2018-05-01T06:14:15.389Z,15
2018-05-01T06:15:15.404Z,14.99
2018-05-01T06:16:15.428Z,14.99
2018-05-01T06:17:15.204Z,14.86
2018-05-01T06:18:15.215Z,14.91
2018-05-01T06:19:15.535Z,14.84
2018-05-01T06:20:15.519Z,14.94
2018-05-01T06:21:15.280Z,14.82
2018-05-01T06:22:15.305Z,14.72
2018-05-01T06:23:15.321Z,14.78
2018-05-01T06:24:15.608Z,14.97
2018-05-01T06:25:15.364Z,15.03
2018-05-01T06:26:15.644Z,15.03
2018-05-01T06:27:15.663Z,15
2018-05-01T06:28:15.680Z,15.02
2018-05-01T06:29:15.712Z,15.21
2018-05-01T06:30:15.726Z,15.37
2018-05-01T06:31:16.219Z,15.24
2018-05-01T06:32:15.767Z,15.29
2018-05-01T06:33:15.811Z,15.37
2018-05-01T06:34:15.848Z,15.24
2018-05-01T06:35:15.818Z,15.27
2018-05-01T06:36:15.855Z,15.22
2018-05-01T06:37:15.633Z,15.37
2018-05-01T06:38:15.893Z,15.51
2018-05-01T06:39:15.912Z,15.49
2018-05-01T06:40:15.933Z,15.44
2018-05-01T06:41:15.963Z,15.51
2018-05-01T06:42:15.977Z,15.33
2018-05-01T06:43:15.741Z,15.18
2018-05-01T06:44:15.769Z,15.31
2018-05-01T06:45:16.038Z,15.33
2018-05-01T06:46:16.064Z,15.07
2018-05-01T06:47:16.082Z,15.04
2018-05-01T06:48:16.104Z,14.89
2018-05-01T06:49:16.179Z,14.91
2018-05-01T06:50:16.150Z,15.02
2018-05-01T06:51:16.170Z,14.92
2018-05-01T06:52:16.310Z,14.62
2018-05-01T06:53:16.211Z,14.72
2018-05-01T06:54:15.985Z,14.88
2018-05-01T06:55:16.017Z,14.96
2018-05-01T06:56:15.770Z,15.1
2018-05-01T06:57:16.296Z,15.11
2018-05-01T06:58:16.324Z,15.09
2018-05-01T06:59:15.831Z,15.15
2018-05-01T07:00:16.363Z,15.36
2018-05-01T07:01:16.384Z,15.55
2018-05-01T07:02:16.400Z,15.68
2018-05-01T07:03:16.427Z,15.82
2018-05-01T07:04:16.612Z,15.79
2018-05-01T07:05:16.477Z,15.54
2018-05-01T07:06:16.488Z,15.57
2018-05-01T07:07:16.511Z,15.72
2018-05-01T07:08:16.530Z,15.92
2018-05-01T07:09:16.536Z,15.95
2018-05-01T07:10:16.746Z,16.15
2018-05-01T07:11:16.579Z,16.36
2018-05-01T07:12:16.596Z,16.23
2018-05-01T07:13:16.653Z,16.39
2018-05-01T07:14:16.660Z,16.6
2018-05-01T07:15:16.684Z,16.56
2018-05-01T07:16:16.713Z,16.51
2018-05-01T07:17:16.727Z,16.23
2018-05-01T07:18:16.776Z,15.77
2018-05-01T07:19:16.805Z,15.9
2018-05-01T07:20:16.779Z,15.57
2018-05-01T07:21:17.055Z,15.73
2018-05-01T07:22:16.822Z,15.84
2018-05-01T07:23:16.355Z,15.75
2018-05-01T07:24:16.375Z,15.8
2018-05-01T07:25:16.900Z,15.72
2018-05-01T07:26:16.675Z,15.7
2018-05-01T07:27:16.695Z,15.82
2018-05-01T07:28:17.073Z,15.83
2018-05-01T07:29:16.482Z,16.16
2018-05-01T07:30:17.013Z,16.39
2018-05-01T07:31:16.779Z,16.65
2018-05-01T07:32:17.057Z,16.71
2018-05-01T07:33:16.824Z,16.89
2018-05-01T07:34:17.099Z,17.02
2018-05-01T07:35:17.123Z,17.3
2018-05-01T07:36:17.177Z,17.29
2018-05-01T07:37:17.177Z,17.29
2018-05-01T07:38:17.198Z,17.39
2018-05-01T07:39:17.217Z,17.38
2018-05-01T07:40:17.234Z,17.44
2018-05-01T07:41:17.009Z,17.59
2018-05-01T07:42:17.289Z,17.59
2018-05-01T07:43:17.307Z,17.36
2018-05-01T07:44:17.329Z,17.36
2018-05-01T07:45:17.349Z,17.41
2018-05-01T07:46:17.391Z,17.48
2018-05-01T07:47:17.393Z,17.46
2018-05-01T07:48:17.167Z,17.22
2018-05-01T07:49:17.438Z,16.89
2018-05-01T07:50:17.209Z,16.87
2018-05-01T07:51:17.487Z,16.94
2018-05-01T07:52:17.257Z,17.04
2018-05-01T07:53:17.546Z,17.2
2018-05-01T07:54:17.556Z,17.39
2018-05-01T07:55:17.577Z,17.51
2018-05-01T07:56:17.096Z,17.78
2018-05-01T07:57:17.372Z,17.86
2018-05-01T07:58:17.393Z,17.94
2018-05-01T07:59:17.674Z,17.94
2018-05-01T08:00:17.714Z,17.86
2018-05-01T08:01:17.722Z,17.79
2018-05-01T08:02:17.744Z,17.97
2018-05-01T08:03:17.507Z,18.01
2018-05-01T08:04:17.795Z,18.16
2018-05-01T08:05:17.815Z,17.94
2018-05-01T08:06:17.824Z,17.92
2018-05-01T08:07:17.848Z,18.04
2018-05-01T08:08:17.877Z,18.35
2018-05-01T08:09:17.648Z,18.11
2018-05-01T08:10:17.932Z,18.35
2018-05-01T08:11:17.731Z,17.98
2018-05-01T08:12:17.721Z,18.15
2018-05-01T08:13:17.999Z,18.26
2018-05-01T08:14:17.766Z,18.4
2018-05-01T08:15:17.791Z,18.49
2018-05-01T08:16:17.816Z,18.49
2018-05-01T08:17:17.860Z,18.33
2018-05-01T08:18:17.860Z,18.07
2018-05-01T08:19:18.146Z,17.7
2018-05-01T08:20:18.163Z,17.41
2018-05-01T08:21:18.186Z,17.36
2018-05-01T08:22:18.221Z,17.15
2018-05-01T08:23:17.984Z,17.15
2018-05-01T08:24:18.271Z,17.33
2018-05-01T08:25:18.017Z,17.45
2018-05-01T08:26:18.301Z,17.14
2018-05-01T08:27:18.319Z,16.75
2018-05-01T08:28:18.363Z,16.74
2018-05-01T08:29:18.371Z,16.83
2018-05-01T08:30:18.397Z,16.91
2018-05-01T08:31:18.414Z,17.05
2018-05-01T08:32:18.441Z,17.14
2018-05-01T08:33:18.467Z,17.36
2018-05-01T08:34:18.486Z,17.65
2018-05-01T08:35:18.505Z,17.83
2018-05-01T08:36:18.531Z,18.22
2018-05-01T08:37:18.297Z,18.26
2018-05-01T08:38:18.590Z,18.43
2018-05-01T08:39:18.344Z,18.41
2018-05-01T08:40:18.628Z,18.6
2018-05-01T08:41:18.653Z,18.77
2018-05-01T08:42:18.680Z,18.95
2018-05-01T08:43:18.173Z,19
2018-05-01T08:44:18.719Z,18.89
2018-05-01T08:45:18.905Z,18.86
2018-05-01T08:46:18.769Z,18.84
2018-05-01T08:47:18.788Z,18.8
2018-05-01T08:48:18.578Z,18.58
2018-05-01T08:49:18.834Z,18.68
2018-05-01T08:50:18.863Z,18.98
2018-05-01T08:51:18.888Z,18.84
2018-05-01T08:52:18.915Z,18.95
2018-05-01T08:53:18.932Z,19.18
2018-05-01T08:54:18.964Z,19.02
2018-05-01T08:55:18.987Z,18.95
2018-05-01T08:56:19.008Z,19.15
2018-05-01T08:57:19.094Z,19.07
2018-05-01T08:58:19.061Z,19.08
2018-05-01T08:59:19.078Z,19.07
2018-05-01T09:00:19.111Z,18.83
2018-05-01T09:01:18.877Z,18.74
2018-05-01T09:02:19.152Z,18.84
2018-05-01T09:03:19.181Z,18.49
2018-05-01T09:04:19.078Z,18.23
2018-05-01T09:05:19.275Z,18.43
2018-05-01T09:06:19.254Z,18
2018-05-01T09:07:19.278Z,18.01
2018-05-01T09:08:19.299Z,17.97
2018-05-01T09:09:19.069Z,17.95
2018-05-01T09:10:19.148Z,17.87
2018-05-01T09:11:19.369Z,17.76
2018-05-01T09:12:19.146Z,17.68
2018-05-01T09:13:19.430Z,17.74
2018-05-01T09:14:19.456Z,17.98
2018-05-01T09:15:19.465Z,18.05
2018-05-01T09:16:19.494Z,17.67
2018-05-01T09:17:19.526Z,17.79
2018-05-01T09:18:19.944Z,17.76
2018-05-01T09:19:19.568Z,17.86
2018-05-01T09:20:19.342Z,18.15
2018-05-01T09:21:19.611Z,18.34
2018-05-01T09:22:19.645Z,18.5
2018-05-01T09:23:19.652Z,18.6
2018-05-01T09:24:19.428Z,18.7
2018-05-01T09:25:19.497Z,18.43
2018-05-01T09:26:19.731Z,18.45
2018-05-01T09:27:19.765Z,18.18
2018-05-01T09:28:19.771Z,18.23
2018-05-01T09:29:19.792Z,18.37
2018-05-01T09:30:19.821Z,18.47
2018-05-01T09:31:19.849Z,18.45
2018-05-01T09:32:19.616Z,18.44
2018-05-01T09:33:19.899Z,18.53
2018-05-01T09:34:19.925Z,18.4
2018-05-01T09:35:19.969Z,18.26
2018-05-01T09:36:19.709Z,18.34
2018-05-01T09:37:19.985Z,18.33
2018-05-01T09:38:19.752Z,17.97
2018-05-01T09:39:19.770Z,17.78
2018-05-01T09:40:20.095Z,18.01
2018-05-01T09:41:20.067Z,18.1
2018-05-01T09:42:19.838Z,18.19
2018-05-01T09:43:20.110Z,18.26
2018-05-01T09:44:19.886Z,18.33
2018-05-01T09:45:20.163Z,18.47
2018-05-01T09:46:19.939Z,18.5
2018-05-01T09:47:20.218Z,18.43
2018-05-01T09:48:20.246Z,18.63
2018-05-01T09:49:20.266Z,18.01
2018-05-01T09:50:20.293Z,17.92
2018-05-01T09:51:20.314Z,17.7
2018-05-01T09:52:20.335Z,17.74
2018-05-01T09:53:20.502Z,18.01
2018-05-01T09:54:20.393Z,18.25
2018-05-01T09:55:19.948Z,18.23
2018-05-01T09:56:20.425Z,18.43
2018-05-01T09:57:20.445Z,18.4
2018-05-01T09:58:20.224Z,18.5
2018-05-01T09:59:20.491Z,18.74
2018-05-01T10:00:20.514Z,18.96
2018-05-01T10:01:20.539Z,18.96
2018-05-01T10:02:20.647Z,19.02
2018-05-01T10:03:20.599Z,18.96
2018-05-01T10:04:20.365Z,18.98
2018-05-01T10:05:20.284Z,18.73
2018-05-01T10:06:20.671Z,18.6
2018-05-01T10:07:20.692Z,18.41
2018-05-01T10:08:20.730Z,17.97
2018-05-01T10:09:20.738Z,17.9
2018-05-01T10:10:20.761Z,17.56
2018-05-01T10:11:20.538Z,17.46
2018-05-01T10:12:20.785Z,17.42
2018-05-01T10:13:20.865Z,17.74
2018-05-01T10:14:20.853Z,17.94
2018-05-01T10:15:20.625Z,17.95
2018-05-01T10:16:20.397Z,17.94
2018-05-01T10:17:20.677Z,18.04
2018-05-01T10:18:20.957Z,18.04
2018-05-01T10:19:20.983Z,18.04
2018-05-01T10:20:21.056Z,17.76
2018-05-01T10:21:21.020Z,17.83
2018-05-01T10:22:20.790Z,18.03
2018-05-01T10:23:21.075Z,18.44
2018-05-01T10:24:20.829Z,18.47
2018-05-01T10:25:20.849Z,18.43
2018-05-01T10:26:20.871Z,18.4
2018-05-01T10:27:21.153Z,18.52
2018-05-01T10:28:21.177Z,18.58
2018-05-01T10:29:20.943Z,18.55
2018-05-01T10:30:21.219Z,18.44
2018-05-01T10:31:21.245Z,18.4
2018-05-01T10:32:21.300Z,18.31
2018-05-01T10:33:21.045Z,18.43
2018-05-01T10:34:21.087Z,18.47
2018-05-01T10:35:20.839Z,18.81
2018-05-01T10:36:21.377Z,18.81
2018-05-01T10:37:21.143Z,18.92
2018-05-01T10:38:21.418Z,19.18
2018-05-01T10:39:21.492Z,19.18
2018-05-01T10:40:21.462Z,19.11
2018-05-01T10:41:21.493Z,19.12
2018-05-01T10:42:21.245Z,19.07
2018-05-01T10:43:21.266Z,19.15
2018-05-01T10:44:21.287Z,19.4
2018-05-01T10:45:21.583Z,19.14
2018-05-01T10:46:21.613Z,19.16
2018-05-01T10:47:21.631Z,19.15
2018-05-01T10:48:21.403Z,19.15
2018-05-01T10:49:21.870Z,19.26
2018-05-01T10:50:21.445Z,19.29
2018-05-01T10:51:21.716Z,19.27
2018-05-01T10:52:21.738Z,19.22
2018-05-01T10:53:21.255Z,19.3
2018-05-01T10:54:21.850Z,19.34
2018-05-01T10:55:21.825Z,19.37
2018-05-01T10:56:21.862Z,19.33
2018-05-01T10:57:21.613Z,19.31
2018-05-01T10:58:21.639Z,19.18
2018-05-01T10:59:21.920Z,19.14
2018-05-01T11:00:21.946Z,19.07
2018-05-01T11:01:21.956Z,19.07
2018-05-01T11:02:21.730Z,19.29
2018-05-01T11:03:22.022Z,19.39
2018-05-01T11:04:21.775Z,19.24
2018-05-01T11:05:22.051Z,19.34
2018-05-01T11:06:22.086Z,19.47
2018-05-01T11:07:21.843Z,19.39
2018-05-01T11:08:21.917Z,19.16
2018-05-01T11:09:21.946Z,19.45
2018-05-01T11:10:21.922Z,19.49
2018-05-01T11:11:22.206Z,19.45
2018-05-01T11:12:22.227Z,19.69
2018-05-01T11:13:21.993Z,19.55
2018-05-01T11:14:22.023Z,19.49
2018-05-01T11:15:22.040Z,19.45
2018-05-01T11:16:22.325Z,19.54
2018-05-01T11:17:22.420Z,19.63
2018-05-01T11:18:22.363Z,19.62
2018-05-01T11:19:22.127Z,19.59
2018-05-01T11:20:21.906Z,19.67
2018-05-01T11:21:22.182Z,19.67
2018-05-01T11:22:22.197Z,19.66
2018-05-01T11:23:22.481Z,19.71
2018-05-01T11:24:22.318Z,19.66
2018-05-01T11:25:22.273Z,19.66
2018-05-01T11:26:23.010Z,19.79
2018-05-01T11:27:22.576Z,19.82
2018-05-01T11:28:22.604Z,19.89
2018-05-01T11:29:22.375Z,20.06
2018-05-01T11:30:22.657Z,20.19
2018-05-01T11:31:22.423Z,20.22
2018-05-01T11:32:22.705Z,20.4
2018-05-01T11:33:22.728Z,20.43
2018-05-01T11:34:22.753Z,20.47
2018-05-01T11:35:22.776Z,20.78
2018-05-01T11:36:22.796Z,21.27
2018-05-01T11:37:22.835Z,21.95
2018-05-01T11:38:22.582Z,22.43
2018-05-01T11:39:22.674Z,23
2018-05-01T11:40:22.401Z,23.66
2018-05-01T11:41:22.936Z,24.4
2018-05-01T11:42:22.699Z,24.86
2018-05-01T11:43:22.980Z,25.14
2018-05-01T11:44:23.008Z,25.41
2018-05-01T11:45:23.054Z,25.51
2018-05-01T11:46:22.921Z,26.06
2018-05-01T11:47:23.104Z,26.6
2018-05-01T11:48:23.122Z,27
2018-05-01T11:49:23.152Z,27.32
2018-05-01T11:50:22.926Z,27.26
2018-05-01T11:51:23.209Z,27.49
2018-05-01T11:52:22.986Z,27.71
2018-05-01T11:53:23.080Z,27.74
2018-05-01T11:54:23.347Z,27.98
2018-05-01T11:55:23.074Z,28.14
2018-05-01T11:56:23.361Z,28.38
2018-05-01T11:57:23.136Z,28.78
2018-05-01T11:58:23.424Z,29.32
2018-05-01T11:59:23.303Z,29.35
2018-05-01T12:00:23.483Z,29.17
2018-05-01T12:01:23.513Z,29.32
2018-05-01T12:02:23.280Z,29.57
2018-05-01T12:03:23.310Z,29.38
2018-05-01T12:04:23.748Z,29.42
2018-05-01T12:05:23.651Z,29.68
2018-05-01T12:06:23.671Z,29.82
2018-05-01T12:07:23.696Z,30.08
2018-05-01T12:08:23.725Z,29.71
2018-05-01T12:09:24.066Z,29.1
2018-05-01T12:10:23.796Z,29.19
2018-05-01T12:11:23.822Z,29.68
2018-05-01T12:12:23.861Z,29.27
2018-05-01T12:13:23.973Z,29.35
2018-05-01T12:14:23.928Z,28.98
2018-05-01T12:15:23.955Z,29.51
2018-05-01T12:16:23.732Z,29.29
2018-05-01T12:17:24.016Z,29.39
2018-05-01T12:18:23.791Z,29.66
2018-05-01T12:19:23.833Z,29.79
2018-05-01T12:20:24.119Z,30.15
2018-05-01T12:21:23.885Z,30.53
2018-05-01T12:22:23.933Z,30.68
2018-05-01T12:23:24.221Z,31.22
2018-05-01T12:24:24.034Z,31.7
2018-05-01T12:25:24.024Z,32.41
2018-05-01T12:26:24.322Z,32.74
2018-05-01T12:27:24.341Z,32.86
2018-05-01T12:28:24.121Z,33.04
2018-05-01T12:29:24.404Z,33.37
2018-05-01T12:30:24.176Z,33.45
2018-05-01T12:31:24.219Z,33.8
2018-05-01T12:32:24.244Z,34.23
2018-05-01T12:33:24.283Z,34.24
2018-05-01T12:34:24.373Z,34.24
2018-05-01T12:35:24.599Z,34.3
2018-05-01T12:36:24.840Z,34.62
2018-05-01T12:37:24.687Z,34.88
2018-05-01T12:38:24.698Z,34.3
2018-05-01T12:39:24.802Z,33.81
2018-05-01T12:40:24.788Z,33.15
2018-05-01T12:41:24.801Z,32.75
2018-05-01T12:42:24.616Z,32.92
2018-05-01T12:43:24.882Z,33.49
2018-05-01T12:44:25.889Z,33.4
2018-05-01T12:45:24.682Z,33.92
2018-05-01T12:46:24.715Z,34.27
2018-05-01T12:47:24.998Z,34.45
2018-05-01T12:48:25.476Z,33.79
2018-05-01T12:49:24.811Z,33.02
2018-05-01T12:50:24.844Z,32.36
2018-05-01T12:51:24.879Z,31.87
2018-05-01T12:52:25.159Z,31.64
2018-05-01T12:53:25.205Z,31.17
2018-05-01T12:54:25.400Z,30.72
2018-05-01T12:55:25.259Z,30.4